Time;durP1;ratioP1;P1;durP2;ratioP2;P2;SDS_P1;SDS_P2;PMS_P1;PMS_P2;Temp;Humidity;BMP_temperature;BMP_pressure;BME280_temperature;BME280_humidity;BME280_pressure;Samples;Min_cycle;Max_cycle;Signal;HPM_P1;HPM_P2
2022/02/09 00:02:00;;;;;;;16.85;8.48;;;;;;;;;;5070688;28;20028;-47
2022/02/09 00:04:28;;;;;;;15.80;7.35;;;;;;;;;;5069828;28;20473;-47
2022/02/09 00:09:20;;;;;;;14.30;7.05;;;;;;;;;;5057068;28;20480;-47
2022/02/09 00:12:02;;;;;;;14.15;7.28;;;;;;;;;;5063074;28;20538;-47
2022/02/09 00:17:14;;;;;;;14.32;7.68;;;;;;;;;;5064788;28;20063;-48
2022/02/09 00:59:50;;;;;;;14.30;7.13;;;;;;;;;;5062350;28;20381;-48
2022/02/09 01:38:07;;;;;;;14.00;7.32;;;;;;;;;;5064007;28;20032;-47
2022/02/09 01:41:20;;;;;;;14.60;7.38;;;;;;;;;;5070315;28;20055;-47
2022/02/09 01:56:56;;;;;;;15.63;8.23;;;;;;;;;;5067446;28;20055;-49
2022/02/09 01:59:22;;;;;;;19.40;8.70;;;;;;;;;;5056024;28;20069;-48
2022/02/09 02:01:48;;;;;;;16.90;8.20;;;;;;;;;;5064177;28;20524;-46
2022/02/09 02:04:14;;;;;;;15.80;8.57;;;;;;;;;;5061062;28;20024;-47
2022/02/09 02:06:45;;;;;;;19.20;8.20;;;;;;;;;;5067379;28;20082;-47
2022/02/09 02:09:13;;;;;;;15.65;7.40;;;;;;;;;;5060254;28;20582;-47
2022/02/09 02:11:46;;;;;;;18.30;8.00;;;;;;;;;;5065295;28;20040;-48
2022/02/09 02:16:50;;;;;;;16.48;8.15;;;;;;;;;;5073753;28;20055;-47
2022/02/09 02:19:31;;;;;;;17.92;7.95;;;;;;;;;;5059897;28;20029;-47
2022/02/09 02:22:13;;;;;;;15.55;7.63;;;;;;;;;;5060453;28;20048;-47
2022/02/09 02:25:03;;;;;;;17.27;8.65;;;;;;;;;;5061561;28;20402;-46
2022/02/09 02:27:50;;;;;;;17.65;8.20;;;;;;;;;;5063208;28;20040;-48
2022/02/09 02:30:47;;;;;;;16.88;8.43;;;;;;;;;;5053356;28;20032;-47
2022/02/09 03:11:10;;;;;;;15.48;8.25;;;;;;;;;;5072738;28;20032;-52
2022/02/09 03:13:48;;;;;;;15.02;8.10;;;;;;;;;;5072704;28;20036;-45
2022/02/09 03:16:18;;;;;;;14.60;8.52;;;;;;;;;;5071254;28;20514;-45
2022/02/09 03:19:08;;;;;;;13.77;7.57;;;;;;;;;;5065593;28;20024;-45
2022/02/09 03:21:45;;;;;;;15.88;8.52;;;;;;;;;;5056500;28;20033;-47
2022/02/09 03:24:33;;;;;;;16.95;8.40;;;;;;;;;;5069556;28;20432;-48
2022/02/09 03:27:19;;;;;;;15.95;8.68;;;;;;;;;;5059034;28;20036;-46
2022/02/09 03:54:29;;;;;;;22.40;11.98;;;;;;;;;;5058522;28;20495;-45
2022/02/09 03:57:00;;;;;;;21.88;11.18;;;;;;;;;;5063098;28;20038;-46
2022/02/09 03:59:29;;;;;;;22.48;11.38;;;;;;;;;;5072849;28;20136;-45
2022/02/09 04:01:55;;;;;;;22.90;11.82;;;;;;;;;;5063302;28;20821;-49
2022/02/09 04:04:21;;;;;;;25.15;11.65;;;;;;;;;;5065496;28;20541;-45
2022/02/09 04:06:50;;;;;;;23.05;12.57;;;;;;;;;;5060798;28;20040;-47
2022/02/09 04:09:19;;;;;;;21.70;11.40;;;;;;;;;;5060361;28;20032;-46
2022/02/09 04:14:54;;;;;;;22.40;11.43;;;;;;;;;;5022604;28;20049;-45
2022/02/09 04:35:59;;;;;;;20.17;10.50;;;;;;;;;;5054637;28;20036;-47
2022/02/09 04:39:13;;;;;;;17.35;9.43;;;;;;;;;;5064426;28;20039;-47
2022/02/09 04:41:57;;;;;;;15.75;8.95;;;;;;;;;;5061172;28;20572;-47
2022/02/09 04:44:36;;;;;;;18.73;10.02;;;;;;;;;;5059586;28;20119;-47
2022/02/09 04:49:56;;;;;;;17.25;8.60;;;;;;;;;;5072061;28;20085;-47
2022/02/09 04:55:17;;;;;;;16.58;9.35;;;;;;;;;;5069709;28;19958;-49
2022/02/09 04:57:48;;;;;;;15.48;8.00;;;;;;;;;;5061204;28;20068;-47
2022/02/09 05:00:25;;;;;;;13.25;7.53;;;;;;;;;;5059924;28;20024;-46
2022/02/09 05:17:50;;;;;;;15.15;8.57;;;;;;;;;;5055687;28;20035;-47
2022/02/09 05:20:32;;;;;;;10.27;6.15;;;;;;;;;;5066004;28;20039;-47
2022/02/09 05:28:05;;;;;;;16.17;6.78;;;;;;;;;;5069837;28;20039;-47
2022/02/09 05:30:31;;;;;;;12.50;6.47;;;;;;;;;;5067994;28;20040;-47
2022/02/09 05:32:57;;;;;;;14.20;6.97;;;;;;;;;;5068485;28;20435;-47
2022/02/09 05:35:23;;;;;;;10.30;6.07;;;;;;;;;;5062197;28;20370;-48
2022/02/09 05:37:50;;;;;;;12.48;6.07;;;;;;;;;;5057812;28;20024;-47
2022/02/09 05:40:16;;;;;;;9.20;5.88;;;;;;;;;;5061072;28;20024;-47
2022/02/09 05:42:42;;;;;;;11.60;6.10;;;;;;;;;;5068457;28;20031;-46
2022/02/09 05:45:10;;;;;;;9.73;5.20;;;;;;;;;;5063567;28;20491;-48
2022/02/09 05:50:32;;;;;;;9.82;5.47;;;;;;;;;;5067705;28;20047;-47
2022/02/09 05:58:34;;;;;;;9.05;5.00;;;;;;;;;;5065433;28;20585;-47
2022/02/09 06:01:00;;;;;;;10.52;5.97;;;;;;;;;;5064442;28;20060;-48
2022/02/09 06:03:26;;;;;;;11.63;5.75;;;;;;;;;;5064195;28;20473;-47
2022/02/09 06:05:53;;;;;;;9.25;5.35;;;;;;;;;;5066717;28;20094;-47
2022/02/09 06:08:22;;;;;;;8.70;5.38;;;;;;;;;;5070296;28;20452;-47
2022/02/09 06:10:54;;;;;;;12.55;5.93;;;;;;;;;;5068558;28;20043;-47
2022/02/09 06:13:41;;;;;;;11.18;5.65;;;;;;;;;;5069568;28;20051;-48
2022/02/09 06:19:39;;;;;;;13.95;6.03;;;;;;;;;;5058594;28;20029;-47
2022/02/09 06:21:38;;;;;;;8.00;5.32;;;;;;;;;;5058842;28;20042;-46
2022/02/09 06:24:04;;;;;;;7.65;5.38;;;;;;;;;;5064285;28;20024;-46
2022/02/09 06:26:33;;;;;;;11.23;5.38;;;;;;;;;;5065558;28;20021;-47
2022/02/09 06:28:59;;;;;;;10.02;6.25;;;;;;;;;;5065954;28;20029;-47
2022/02/09 06:31:25;;;;;;;9.77;5.60;;;;;;;;;;5060066;28;20037;-47
2022/02/09 06:33:51;;;;;;;11.30;5.50;;;;;;;;;;5063408;28;20751;-46
2022/02/09 06:36:22;;;;;;;10.38;5.45;;;;;;;;;;5066948;28;20029;-47
2022/02/09 06:38:48;;;;;;;9.02;5.50;;;;;;;;;;5073313;28;20028;-50
2022/02/09 06:41:14;;;;;;;7.85;4.80;;;;;;;;;;5065110;28;20182;-48
2022/02/09 06:43:40;;;;;;;10.20;5.47;;;;;;;;;;5062543;28;20119;-49
2022/02/09 06:46:06;;;;;;;8.13;4.95;;;;;;;;;;5060588;28;20021;-47
2022/02/09 06:48:33;;;;;;;7.72;5.10;;;;;;;;;;5067132;28;20039;-48
2022/02/09 06:51:10;;;;;;;10.05;4.47;;;;;;;;;;5076125;28;20024;-46
2022/02/09 06:53:59;;;;;;;8.65;4.53;;;;;;;;;;5068191;28;20429;-50
2022/02/09 06:56:26;;;;;;;10.95;5.22;;;;;;;;;;5059088;28;20024;-52
2022/02/09 06:59:12;;;;;;;11.40;5.10;;;;;;;;;;5073023;28;20500;-51
2022/02/09 07:01:38;;;;;;;10.50;5.18;;;;;;;;;;5070633;28;20047;-48
2022/02/09 07:04:04;;;;;;;9.60;5.00;;;;;;;;;;5065819;28;20094;-48
2022/02/09 07:06:31;;;;;;;7.93;4.75;;;;;;;;;;5071132;28;20106;-46
2022/02/09 07:08:57;;;;;;;8.57;5.10;;;;;;;;;;5065604;28;20033;-48
2022/02/09 07:11:23;;;;;;;8.88;5.00;;;;;;;;;;5064036;28;20041;-47
2022/02/09 07:13:50;;;;;;;8.13;5.07;;;;;;;;;;5067092;28;20366;-47
2022/02/09 07:16:17;;;;;;;8.35;4.85;;;;;;;;;;5062949;28;20542;-48
2022/02/09 07:18:45;;;;;;;9.10;4.97;;;;;;;;;;5066427;28;20031;-46
2022/02/09 07:21:16;;;;;;;9.25;5.32;;;;;;;;;;5063725;28;20051;-46
2022/02/09 07:23:47;;;;;;;8.18;5.07;;;;;;;;;;5075059;28;20024;-46
2022/02/09 07:26:17;;;;;;;10.90;4.60;;;;;;;;;;5068560;28;20036;-47
2022/02/09 07:28:43;;;;;;;6.85;4.55;;;;;;;;;;5067375;28;20044;-47
2022/02/09 07:31:10;;;;;;;6.57;4.10;;;;;;;;;;5070633;28;20519;-46
2022/02/09 07:33:36;;;;;;;8.57;4.00;;;;;;;;;;5063513;28;20029;-46
2022/02/09 07:36:02;;;;;;;8.05;3.75;;;;;;;;;;5069955;28;20112;-49
2022/02/09 07:38:29;;;;;;;8.02;3.92;;;;;;;;;;5065770;28;20715;-48
2022/02/09 07:40:58;;;;;;;7.97;3.58;;;;;;;;;;5060268;28;20029;-47
2022/02/09 07:43:37;;;;;;;9.50;4.03;;;;;;;;;;5066962;28;20052;-48
2022/02/09 07:48:56;;;;;;;4.50;3.38;;;;;;;;;;5056331;28;20117;-47
2022/02/09 07:54:00;;;;;;;6.32;2.88;;;;;;;;;;5063700;28;20048;-46
2022/02/09 07:56:28;;;;;;;4.03;3.00;;;;;;;;;;5064833;28;20135;-46
2022/02/09 07:58:54;;;;;;;4.25;2.90;;;;;;;;;;5056649;28;20033;-49
2022/02/09 08:01:20;;;;;;;5.53;3.22;;;;;;;;;;5060605;28;20032;-47
2022/02/09 08:03:46;;;;;;;4.13;2.85;;;;;;;;;;5066361;28;20025;-46
2022/02/09 08:06:12;;;;;;;3.97;2.35;;;;;;;;;;5061397;28;20108;-46
2022/02/09 08:08:41;;;;;;;5.18;3.00;;;;;;;;;;5065891;28;20667;-48
2022/02/09 08:11:22;;;;;;;2.55;2.25;;;;;;;;;;5070264;28;20032;-50
2022/02/09 08:23:33;;;;;;;3.17;2.35;;;;;;;;;;5062066;28;20035;-47
2022/02/09 08:30:08;;;;;;;4.78;2.20;;;;;;;;;;5059565;28;20035;-47
2022/02/09 08:32:41;;;;;;;4.70;2.53;;;;;;;;;;5065622;28;20372;-46
2022/02/09 08:35:08;;;;;;;5.90;2.35;;;;;;;;;;5061084;28;20021;-47
2022/02/09 08:37:34;;;;;;;5.10;2.45;;;;;;;;;;5061972;28;20526;-47
2022/02/09 08:40:00;;;;;;;5.32;2.10;;;;;;;;;;5068589;28;20020;-46
2022/02/09 08:42:26;;;;;;;4.35;1.90;;;;;;;;;;5059961;28;20036;-46
2022/02/09 08:44:53;;;;;;;3.88;1.70;;;;;;;;;;5071751;28;20044;-46
2022/02/09 08:47:19;;;;;;;2.80;1.58;;;;;;;;;;5065763;28;20043;-47
2022/02/09 08:49:45;;;;;;;2.75;2.10;;;;;;;;;;5064580;28;20033;-49
2022/02/09 08:52:11;;;;;;;2.10;1.55;;;;;;;;;;5063143;28;20053;-47
2022/02/09 08:54:37;;;;;;;2.72;1.70;;;;;;;;;;5067653;28;20485;-46
2022/02/09 08:57:09;;;;;;;2.65;1.90;;;;;;;;;;5058236;28;20025;-48
2022/02/09 08:59:35;;;;;;;5.25;2.25;;;;;;;;;;5064604;28;20131;-46
2022/02/09 09:02:05;;;;;;;3.10;1.95;;;;;;;;;;5065914;28;20033;-48
2022/02/09 09:04:33;;;;;;;2.50;1.70;;;;;;;;;;5068468;28;20468;-47
2022/02/09 09:07:05;;;;;;;2.72;1.73;;;;;;;;;;5056471;28;20021;-49
2022/02/09 09:18:20;;;;;;;3.08;1.90;;;;;;;;;;5066651;28;20579;-47
2022/02/09 09:40:17;;;;;;;3.60;1.67;;;;;;;;;;5064743;28;20427;-47
2022/02/09 09:58:03;;;;;;;2.65;2.10;;;;;;;;;;5067409;28;20039;-46
2022/02/09 10:02:15;;;;;;;2.97;2.25;;;;;;;;;;5067603;28;20027;-49
2022/02/09 10:32:40;;;;;;;4.30;2.50;;;;;;;;;;5068697;28;20043;-46
2022/02/09 10:35:22;;;;;;;3.40;2.33;;;;;;;;;;5064011;28;20531;-49
2022/02/09 10:37:48;;;;;;;3.25;2.05;;;;;;;;;;5066602;28;20044;-51
2022/02/09 10:40:27;;;;;;;3.97;2.28;;;;;;;;;;5074270;28;20099;-50
2022/02/09 10:42:59;;;;;;;2.97;2.17;;;;;;;;;;5073698;28;20472;-50
2022/02/09 10:45:32;;;;;;;2.97;2.00;;;;;;;;;;5073031;28;20516;-48
2022/02/09 10:47:58;;;;;;;3.75;1.83;;;;;;;;;;5059768;28;20086;-47
2022/02/09 10:50:28;;;;;;;3.38;1.73;;;;;;;;;;5072995;28;20479;-46
2022/02/09 10:52:55;;;;;;;2.97;2.03;;;;;;;;;;5065450;28;20076;-48
2022/02/09 10:55:36;;;;;;;2.38;1.80;;;;;;;;;;5069374;28;20040;-49
2022/02/09 10:58:03;;;;;;;2.33;1.73;;;;;;;;;;5058032;28;20442;-48
2022/02/09 11:00:29;;;;;;;2.03;1.70;;;;;;;;;;5062641;28;20033;-47
2022/02/09 11:02:55;;;;;;;2.63;1.65;;;;;;;;;;5066535;28;20028;-46
2022/02/09 11:05:22;;;;;;;2.28;1.50;;;;;;;;;;5069788;28;20111;-47
2022/02/09 11:07:48;;;;;;;2.22;1.33;;;;;;;;;;5064427;28;20028;-46
2022/02/09 11:10:14;;;;;;;11.02;1.75;;;;;;;;;;5068153;28;20370;-48
2022/02/09 11:12:42;;;;;;;3.15;1.77;;;;;;;;;;5060399;28;20476;-47
2022/02/09 11:15:09;;;;;;;4.93;1.45;;;;;;;;;;5066111;28;20033;-46
2022/02/09 11:17:36;;;;;;;2.20;1.42;;;;;;;;;;5069426;28;20036;-44
2022/02/09 11:20:02;;;;;;;3.63;1.90;;;;;;;;;;5069141;28;20082;-45
2022/02/09 11:22:39;;;;;;;4.00;1.70;;;;;;;;;;5064766;28;20744;-47
2022/02/09 11:25:20;;;;;;;2.30;1.40;;;;;;;;;;5071247;28;20491;-46
2022/02/09 11:27:54;;;;;;;2.50;1.63;;;;;;;;;;5073956;28;20047;-46
2022/02/09 11:33:07;;;;;;;2.75;1.48;;;;;;;;;;5072866;28;20090;-47
2022/02/09 11:35:39;;;;;;;3.92;1.42;;;;;;;;;;5069611;28;20095;-47
2022/02/09 11:38:14;;;;;;;3.30;1.48;;;;;;;;;;5069126;28;20473;-48
2022/02/09 11:40:50;;;;;;;2.90;1.50;;;;;;;;;;5067952;28;20024;-48
2022/02/09 11:43:32;;;;;;;2.13;1.27;;;;;;;;;;5064217;28;20020;-50
2022/02/09 11:52:14;;;;;;;3.55;1.70;;;;;;;;;;5070580;28;20545;-48
2022/02/09 11:54:55;;;;;;;2.55;1.50;;;;;;;;;;5073110;28;20059;-46
2022/02/09 12:11:24;;;;;;;3.88;1.90;;;;;;;;;;5060557;28;20546;-51
2022/02/09 12:19:52;;;;;;;2.25;1.45;;;;;;;;;;5063908;28;20039;-48
2022/02/09 12:22:19;;;;;;;2.28;1.60;;;;;;;;;;5066397;28;20123;-46
2022/02/09 12:24:45;;;;;;;1.88;1.17;;;;;;;;;;5069748;28;20417;-46
2022/02/09 12:27:12;;;;;;;2.03;1.58;;;;;;;;;;5072601;28;20036;-47
2022/02/09 12:29:42;;;;;;;5.82;1.88;;;;;;;;;;5067983;28;20029;-48
2022/02/09 12:32:14;;;;;;;1.67;1.30;;;;;;;;;;5070954;28;20032;-46
2022/02/09 12:34:43;;;;;;;2.17;1.50;;;;;;;;;;5064282;28;20037;-52
2022/02/09 12:37:13;;;;;;;1.75;1.50;;;;;;;;;;5070451;28;20021;-49
2022/02/09 12:39:53;;;;;;;2.35;1.50;;;;;;;;;;5062824;28;20359;-47
2022/02/09 12:42:20;;;;;;;1.98;1.27;;;;;;;;;;5065425;28;20492;-48
2022/02/09 12:45:03;;;;;;;2.45;1.10;;;;;;;;;;5068319;28;20067;-46
2022/02/09 12:47:33;;;;;;;3.08;1.33;;;;;;;;;;5069429;28;20043;-48
2022/02/09 12:50:00;;;;;;;1.48;1.30;;;;;;;;;;5061876;28;20108;-46
2022/02/09 12:52:29;;;;;;;2.03;1.42;;;;;;;;;;5060907;28;20080;-48
2022/02/09 12:55:17;;;;;;;4.38;1.73;;;;;;;;;;5065258;28;20036;-47
2022/02/09 12:57:47;;;;;;;2.40;1.40;;;;;;;;;;5059930;28;20534;-47
2022/02/09 13:00:27;;;;;;;1.77;1.35;;;;;;;;;;5061414;28;20024;-45
2022/02/09 13:02:54;;;;;;;2.25;1.20;;;;;;;;;;5070209;28;20056;-47
2022/02/09 13:05:20;;;;;;;1.70;1.33;;;;;;;;;;5064038;28;20379;-47
2022/02/09 13:07:53;;;;;;;4.07;1.70;;;;;;;;;;5066138;28;20060;-47
2022/02/09 13:10:23;;;;;;;1.42;1.00;;;;;;;;;;5070049;28;20033;-47
2022/02/09 13:12:49;;;;;;;1.75;1.23;;;;;;;;;;5060633;28;20090;-49
2022/02/09 13:15:21;;;;;;;1.85;1.40;;;;;;;;;;5067805;28;20028;-45
2022/02/09 13:18:12;;;;;;;3.92;1.30;;;;;;;;;;5071337;28;20055;-45
2022/02/09 13:23:54;;;;;;;2.25;1.55;;;;;;;;;;5058968;28;20075;-47
2022/02/09 13:51:38;;;;;;;2.28;1.52;;;;;;;;;;5065992;28;20547;-44
2022/02/09 14:03:14;;;;;;;2.00;1.33;;;;;;;;;;5060475;28;20182;-46
2022/02/09 14:06:42;;;;;;;1.45;1.20;;;;;;;;;;5068929;28;20029;-47
2022/02/09 14:11:42;;;;;;;2.65;1.20;;;;;;;;;;5064490;28;20546;-47
2022/02/09 14:23:54;;;;;;;1.25;1.00;;;;;;;;;;5023066;28;20026;-44
2022/02/09 14:34:50;;;;;;;2.28;1.23;;;;;;;;;;5067452;28;20047;-50
2022/02/09 14:55:45;;;;;;;3.22;1.50;;;;;;;;;;5063296;28;20084;-45
2022/02/09 14:58:13;;;;;;;3.33;1.23;;;;;;;;;;5059629;28;20029;-45
2022/02/09 15:00:55;;;;;;;2.40;1.67;;;;;;;;;;5071560;28;20042;-46
2022/02/09 15:06:26;;;;;;;4.60;1.63;;;;;;;;;;5061500;28;20419;-46
2022/02/09 15:09:11;;;;;;;1.83;1.55;;;;;;;;;;5064628;28;20037;-46
2022/02/09 15:11:51;;;;;;;1.63;1.50;;;;;;;;;;5070766;28;20040;-46
2022/02/09 15:14:29;;;;;;;2.42;1.50;;;;;;;;;;5066058;28;20055;-46
2022/02/09 15:17:23;;;;;;;2.40;1.33;;;;;;;;;;5070048;28;20075;-48
2022/02/09 15:22:35;;;;;;;3.20;2.03;;;;;;;;;;5061450;28;20040;-46
2022/02/09 15:25:08;;;;;;;2.05;1.30;;;;;;;;;;5074056;28;20496;-49
2022/02/09 15:27:34;;;;;;;2.38;1.63;;;;;;;;;;5063715;28;20039;-46
2022/02/09 15:30:00;;;;;;;2.72;1.40;;;;;;;;;;5068093;28;20036;-45
2022/02/09 15:32:34;;;;;;;3.13;1.45;;;;;;;;;;5067588;28;20075;-47
2022/02/09 15:35:09;;;;;;;3.05;1.70;;;;;;;;;;5066782;28;20056;-45
2022/02/09 15:37:43;;;;;;;2.25;1.80;;;;;;;;;;5062187;28;20029;-45
2022/02/09 15:40:25;;;;;;;2.10;1.63;;;;;;;;;;5065520;28;20032;-48
2022/02/09 15:56:49;;;;;;;2.83;1.70;;;;;;;;;;5067554;28;20210;-46
2022/02/09 16:08:11;;;;;;;3.35;1.67;;;;;;;;;;5069838;28;20178;-45
2022/02/09 16:23:46;;;;;;;3.65;1.60;;;;;;;;;;5082847;28;20112;-45
2022/02/09 16:44:37;;;;;;;3.33;2.10;;;;;;;;;;5066265;28;20047;-46
2022/02/09 16:50:00;;;;;;;2.22;2.03;;;;;;;;;;5059801;28;20458;-45
2022/02/09 16:52:47;;;;;;;2.38;1.92;;;;;;;;;;5063410;28;20124;-44
2022/02/09 17:15:26;;;;;;;1.52;1.35;;;;;;;;;;5068703;28;20043;-46
2022/02/09 17:19:34;;;;;;;3.28;1.67;;;;;;;;;;5071283;28;20042;-45
2022/02/09 17:22:00;;;;;;;1.52;1.42;;;;;;;;;;5062195;28;20107;-46
2022/02/09 17:24:26;;;;;;;2.05;1.40;;;;;;;;;;5061873;28;20150;-46
2022/02/09 17:26:55;;;;;;;2.28;1.63;;;;;;;;;;5068823;28;20043;-46
2022/02/09 17:29:27;;;;;;;2.05;1.42;;;;;;;;;;5056139;28;20037;-45
2022/02/09 17:32:03;;;;;;;4.50;1.58;;;;;;;;;;5065620;28;20123;-45
2022/02/09 17:53:33;;;;;;;3.00;1.85;;;;;;;;;;5068597;28;20182;-46
2022/02/09 17:56:03;;;;;;;3.45;2.60;;;;;;;;;;5063291;28;20059;-48
2022/02/09 17:58:34;;;;;;;4.20;3.05;;;;;;;;;;5060950;28;20086;-47
2022/02/09 18:01:00;;;;;;;4.35;2.53;;;;;;;;;;5068232;28;20464;-46
2022/02/09 18:03:28;;;;;;;3.30;2.50;;;;;;;;;;5065054;28;20025;-47
2022/02/09 18:05:56;;;;;;;3.90;3.03;;;;;;;;;;5068405;28;20033;-45
2022/02/09 18:08:48;;;;;;;3.80;2.70;;;;;;;;;;5055952;28;20036;-46
2022/02/09 18:30:22;;;;;;;4.28;2.92;;;;;;;;;;5070363;28;20031;-45
2022/02/09 18:33:10;;;;;;;4.53;2.88;;;;;;;;;;5073554;28;20044;-46
2022/02/09 18:44:07;;;;;;;4.15;2.88;;;;;;;;;;5075296;28;20108;-46
2022/02/09 18:46:52;;;;;;;4.18;3.08;;;;;;;;;;5066105;28;20047;-45
2022/02/09 19:02:57;;;;;;;5.07;3.63;;;;;;;;;;5067182;28;20142;-45
2022/02/09 19:05:30;;;;;;;5.15;3.20;;;;;;;;;;5064843;28;20044;-45
2022/02/09 19:16:33;;;;;;;4.60;3.28;;;;;;;;;;5063247;28;20596;-45
2022/02/09 19:29:55;;;;;;;5.20;3.45;;;;;;;;;;5074272;28;20027;-46
2022/02/09 19:44:01;;;;;;;5.53;3.08;;;;;;;;;;5062846;28;20035;-45
2022/02/09 19:45:56;;;;;;;4.50;3.22;;;;;;;;;;5072776;28;20098;-49
2022/02/09 19:48:26;;;;;;;7.50;3.08;;;;;;;;;;5068413;28;20094;-47
2022/02/09 19:53:45;;;;;;;4.97;3.20;;;;;;;;;;5069055;28;20377;-45
2022/02/09 19:56:15;;;;;;;4.03;2.88;;;;;;;;;;5056331;28;20037;-46
2022/02/09 20:01:33;;;;;;;4.90;3.40;;;;;;;;;;5070580;28;20090;-47
2022/02/09 20:03:59;;;;;;;4.72;3.50;;;;;;;;;;5062819;28;20035;-44
2022/02/09 20:06:25;;;;;;;4.47;3.28;;;;;;;;;;5071107;28;20016;-45
2022/02/09 20:08:51;;;;;;;5.38;3.40;;;;;;;;;;5071568;28;20024;-47
2022/02/09 20:11:18;;;;;;;6.70;3.70;;;;;;;;;;5073523;28;20024;-47
2022/02/09 20:13:46;;;;;;;4.70;3.40;;;;;;;;;;5072680;28;20494;-45
2022/02/09 20:16:13;;;;;;;6.05;3.90;;;;;;;;;;5065636;28;20035;-49
2022/02/09 20:18:40;;;;;;;7.93;3.53;;;;;;;;;;5060807;28;20033;-47
2022/02/09 20:21:06;;;;;;;6.05;3.63;;;;;;;;;;5071702;28;20068;-45
2022/02/09 20:23:34;;;;;;;5.28;3.72;;;;;;;;;;5067022;28;20040;-45
2022/02/09 20:26:03;;;;;;;6.05;4.10;;;;;;;;;;5073169;28;20025;-50
2022/02/09 20:28:30;;;;;;;5.65;3.90;;;;;;;;;;5073116;28;20032;-47
2022/02/09 20:31:04;;;;;;;6.60;4.00;;;;;;;;;;5072449;28;20055;-48
2022/02/09 20:33:36;;;;;;;5.40;3.47;;;;;;;;;;5078706;28;20032;-49
2022/02/09 20:36:05;;;;;;;5.40;3.88;;;;;;;;;;5076169;28;20033;-46
2022/02/09 20:38:32;;;;;;;6.80;4.22;;;;;;;;;;5078683;28;20035;-47
2022/02/09 20:41:03;;;;;;;6.85;4.50;;;;;;;;;;5064150;28;20016;-48
2022/02/09 20:43:33;;;;;;;7.25;3.88;;;;;;;;;;5069086;28;20031;-45
2022/02/09 20:46:04;;;;;;;8.88;4.28;;;;;;;;;;5068681;28;20033;-47
2022/02/09 20:48:30;;;;;;;5.43;3.55;;;;;;;;;;5069405;28;20032;-45
2022/02/09 20:50:57;;;;;;;6.22;3.80;;;;;;;;;;5067230;28;20024;-46
2022/02/09 20:53:24;;;;;;;6.18;3.75;;;;;;;;;;5070249;28;20049;-45
2022/02/09 20:55:50;;;;;;;5.85;3.88;;;;;;;;;;5071900;28;20040;-45
2022/02/09 20:58:17;;;;;;;7.05;4.20;;;;;;;;;;5072162;28;20029;-45
2022/02/09 21:00:53;;;;;;;6.15;4.03;;;;;;;;;;5070655;28;20024;-44
2022/02/09 21:08:29;;;;;;;8.88;4.68;;;;;;;;;;5069060;28;20383;-45
2022/02/09 21:13:45;;;;;;;6.28;4.35;;;;;;;;;;5062518;28;20059;-46
2022/02/09 21:16:40;;;;;;;6.55;4.30;;;;;;;;;;5067338;28;20036;-44
2022/02/09 21:22:26;;;;;;;5.60;4.10;;;;;;;;;;5047640;28;20086;-44
2022/02/09 21:33:21;;;;;;;7.22;4.80;;;;;;;;;;5062531;28;20082;-44
2022/02/09 21:44:31;;;;;;;7.68;5.13;;;;;;;;;;5071786;28;20089;-44
2022/02/09 21:52:20;;;;;;;10.00;5.18;;;;;;;;;;5065914;28;20029;-46
2022/02/09 21:54:52;;;;;;;8.80;5.05;;;;;;;;;;5073267;28;20040;-45
2022/02/09 21:57:40;;;;;;;8.63;5.43;;;;;;;;;;5070143;28;20028;-44
2022/02/09 22:00:25;;;;;;;10.75;4.85;;;;;;;;;;5067505;28;20029;-46
2022/02/09 22:19:45;;;;;;;10.43;6.07;;;;;;;;;;5078543;28;20120;-47
2022/02/09 22:27:36;;;;;;;10.10;5.85;;;;;;;;;;5073221;28;20040;-45
2022/02/09 22:30:47;;;;;;;8.30;4.93;;;;;;;;;;5069850;28;20108;-45
2022/02/09 22:49:21;;;;;;;7.50;4.80;;;;;;;;;;5078603;28;20135;-47
2022/02/09 22:54:41;;;;;;;12.13;5.13;;;;;;;;;;5070698;28;20048;-45
2022/02/09 22:57:07;;;;;;;9.38;5.00;;;;;;;;;;5071085;28;20041;-47
2022/02/09 23:02:12;;;;;;;7.20;4.55;;;;;;;;;;5077883;28;20028;-49
2022/02/09 23:04:46;;;;;;;8.93;5.50;;;;;;;;;;5070422;28;20029;-45
2022/02/09 23:07:24;;;;;;;7.15;4.75;;;;;;;;;;5071891;28;20039;-48
2022/02/09 23:58:15;;;;;;;9.65;5.97;;;;;;;;;;5067705;28;20086;-50
